Time;durP1;ratioP1;P1;durP2;ratioP2;P2;SDS_P1;SDS_P2;PMS_P1;PMS_P2;Temp;Humidity;BMP_temperature;BMP_pressure;BME280_temperature;BME280_humidity;BME280_pressure;Samples;Min_cycle;Max_cycle;Signal;HPM_P1;HPM_P2
2022/08/19 00:01:26;;;;;;;6.45;5.43;;;;;;;;;;5011634;28;20208;-76
2022/08/19 00:03:58;;;;;;;6.13;5.32;;;;;;;;;;4994013;28;20217;-76
2022/08/19 00:06:26;;;;;;;8.15;5.30;;;;;;;;;;5007017;28;20213;-76
2022/08/19 00:08:55;;;;;;;8.48;5.47;;;;;;;;;;4985097;28;20232;-76
2022/08/19 00:11:27;;;;;;;6.28;4.95;;;;;;;;;;4993602;28;20208;-76
2022/08/19 00:13:56;;;;;;;8.05;5.50;;;;;;;;;;4992422;28;20209;-76
2022/08/19 00:16:25;;;;;;;6.35;4.40;;;;;;;;;;4990344;28;20263;-76
2022/08/19 00:18:55;;;;;;;6.07;4.63;;;;;;;;;;4992589;28;20706;-76
2022/08/19 00:21:24;;;;;;;5.72;4.43;;;;;;;;;;4979945;28;20553;-76
2022/08/19 00:23:52;;;;;;;6.40;4.82;;;;;;;;;;4974352;28;20224;-76
2022/08/19 00:26:21;;;;;;;5.07;4.50;;;;;;;;;;4974147;28;20210;-76
2022/08/19 00:28:50;;;;;;;5.35;4.82;;;;;;;;;;4974188;28;20225;-76
2022/08/19 00:31:19;;;;;;;5.32;4.57;;;;;;;;;;4974215;28;20217;-76
2022/08/19 00:33:50;;;;;;;4.72;4.35;;;;;;;;;;4973890;28;20229;-76
2022/08/19 00:36:18;;;;;;;5.32;4.85;;;;;;;;;;4974010;28;20224;-76
2022/08/19 00:38:47;;;;;;;5.38;4.60;;;;;;;;;;4973780;28;20230;-76
2022/08/19 00:41:17;;;;;;;6.50;4.90;;;;;;;;;;4975519;28;20705;-76
2022/08/19 00:43:57;;;;;;;5.28;4.45;;;;;;;;;;4977728;28;20205;-76
2022/08/19 00:46:27;;;;;;;4.80;4.40;;;;;;;;;;4977694;28;20190;-76
2022/08/19 00:48:56;;;;;;;5.82;4.90;;;;;;;;;;4977678;28;20276;-76
2022/08/19 00:51:36;;;;;;;6.63;5.25;;;;;;;;;;5001084;28;20206;-76
2022/08/19 00:54:06;;;;;;;6.68;5.70;;;;;;;;;;5005736;28;20201;-76
2022/08/19 00:56:35;;;;;;;8.00;5.97;;;;;;;;;;4999443;28;20611;-76
2022/08/19 00:59:08;;;;;;;8.45;5.88;;;;;;;;;;4996172;28;20225;-76
2022/08/19 01:01:38;;;;;;;8.20;5.90;;;;;;;;;;4996845;28;20263;-76
2022/08/19 01:04:07;;;;;;;10.90;6.63;;;;;;;;;;4993197;28;20198;-76
2022/08/19 01:06:37;;;;;;;9.18;7.00;;;;;;;;;;4995697;28;20205;-76
2022/08/19 01:09:05;;;;;;;8.77;7.15;;;;;;;;;;4996577;28;20236;-76
2022/08/19 01:11:36;;;;;;;10.85;6.72;;;;;;;;;;4996140;28;20216;-76
2022/08/19 01:14:04;;;;;;;10.70;7.70;;;;;;;;;;4996032;28;20568;-76
2022/08/19 01:16:33;;;;;;;9.32;8.27;;;;;;;;;;4996613;28;20209;-76
2022/08/19 01:19:04;;;;;;;11.13;9.18;;;;;;;;;;4996029;28;20217;-76
2022/08/19 01:21:34;;;;;;;10.73;9.63;;;;;;;;;;4996204;28;20193;-76
2022/08/19 01:24:04;;;;;;;12.13;10.57;;;;;;;;;;4996054;28;20201;-76
2022/08/19 01:26:33;;;;;;;12.23;10.98;;;;;;;;;;4995828;28;20213;-76
2022/08/19 01:29:01;;;;;;;12.95;10.60;;;;;;;;;;4996017;28;20244;-76
2022/08/19 01:31:32;;;;;;;13.05;11.43;;;;;;;;;;4977198;28;20206;-76
2022/08/19 01:34:01;;;;;;;12.25;11.15;;;;;;;;;;4977794;28;20229;-76
2022/08/19 01:36:31;;;;;;;12.32;11.02;;;;;;;;;;4996015;28;20213;-76
2022/08/19 01:39:00;;;;;;;12.95;11.75;;;;;;;;;;4985187;28;20233;-77
2022/08/19 01:41:30;;;;;;;13.15;11.70;;;;;;;;;;4996475;28;20213;-76
2022/08/19 01:43:58;;;;;;;14.50;11.40;;;;;;;;;;4994375;28;20224;-76
2022/08/19 01:46:47;;;;;;;12.93;11.50;;;;;;;;;;4976437;28;20237;-76
2022/08/19 01:49:16;;;;;;;11.60;10.60;;;;;;;;;;4986887;28;20311;-76
2022/08/19 01:51:45;;;;;;;12.82;11.48;;;;;;;;;;4995588;28;20210;-76
2022/08/19 01:54:15;;;;;;;14.23;11.65;;;;;;;;;;4995555;28;20224;-76
2022/08/19 01:56:57;;;;;;;14.27;11.85;;;;;;;;;;4995702;28;20221;-76
2022/08/19 01:59:26;;;;;;;12.75;11.50;;;;;;;;;;4995872;28;20302;-76
2022/08/19 02:01:54;;;;;;;14.27;11.52;;;;;;;;;;4995640;28;20205;-76
2022/08/19 02:04:25;;;;;;;13.25;11.95;;;;;;;;;;4995590;28;20325;-76
2022/08/19 02:06:53;;;;;;;14.07;12.48;;;;;;;;;;4995411;28;20213;-76
2022/08/19 02:09:22;;;;;;;13.43;12.10;;;;;;;;;;4995174;28;20225;-74
2022/08/19 02:11:50;;;;;;;14.50;12.48;;;;;;;;;;4995600;28;20201;-74
2022/08/19 02:14:20;;;;;;;15.60;13.98;;;;;;;;;;4994837;28;20633;-74
2022/08/19 02:16:48;;;;;;;15.70;13.13;;;;;;;;;;4995547;28;20201;-74
2022/08/19 02:19:17;;;;;;;14.43;12.98;;;;;;;;;;4994343;28;20236;-74
2022/08/19 02:21:45;;;;;;;14.07;12.70;;;;;;;;;;4995199;28;20654;-74
2022/08/19 02:24:13;;;;;;;15.10;13.57;;;;;;;;;;4994916;28;20209;-74
2022/08/19 02:26:42;;;;;;;15.73;14.18;;;;;;;;;;4995120;28;20256;-74
2022/08/19 02:29:10;;;;;;;15.70;13.43;;;;;;;;;;4994277;28;20283;-74
2022/08/19 02:31:40;;;;;;;15.65;13.55;;;;;;;;;;4976123;28;20217;-73
2022/08/19 02:34:08;;;;;;;17.45;14.93;;;;;;;;;;4985414;28;20308;-74
2022/08/19 02:36:37;;;;;;;15.48;12.85;;;;;;;;;;4994968;28;20739;-74
2022/08/19 02:39:08;;;;;;;15.35;12.90;;;;;;;;;;4994693;28;20229;-74
2022/08/19 02:41:37;;;;;;;17.35;14.68;;;;;;;;;;4983139;28;20607;-74
2022/08/19 02:44:06;;;;;;;15.93;14.15;;;;;;;;;;4994251;28;20220;-74
2022/08/19 02:46:56;;;;;;;17.98;14.63;;;;;;;;;;4994327;28;20205;-74
2022/08/19 02:49:24;;;;;;;16.27;14.38;;;;;;;;;;4994507;28;20225;-74
2022/08/19 02:51:54;;;;;;;17.45;15.35;;;;;;;;;;4994087;28;20200;-74
2022/08/19 02:54:22;;;;;;;18.90;16.98;;;;;;;;;;4993538;28;20224;-74
2022/08/19 02:56:51;;;;;;;17.73;15.95;;;;;;;;;;4994309;28;20216;-74
2022/08/19 02:59:19;;;;;;;18.80;16.55;;;;;;;;;;4994209;28;20226;-73
2022/08/19 03:01:50;;;;;;;19.42;17.45;;;;;;;;;;4994500;28;20654;-74
2022/08/19 03:04:20;;;;;;;19.10;16.95;;;;;;;;;;4993226;28;20259;-73
2022/08/19 03:06:48;;;;;;;19.15;17.13;;;;;;;;;;4994011;28;20268;-74
2022/08/19 03:09:17;;;;;;;18.25;16.38;;;;;;;;;;4993805;28;20225;-74
2022/08/19 03:11:46;;;;;;;19.60;17.02;;;;;;;;;;4994425;28;20244;-74
2022/08/19 03:14:17;;;;;;;19.10;17.00;;;;;;;;;;4993988;28;20259;-73
2022/08/19 03:16:47;;;;;;;21.10;17.80;;;;;;;;;;4994251;28;20292;-73
2022/08/19 03:19:17;;;;;;;22.60;18.60;;;;;;;;;;4987467;28;20229;-73
2022/08/19 03:21:47;;;;;;;21.58;18.58;;;;;;;;;;4994970;28;20598;-74
2022/08/19 03:24:17;;;;;;;22.38;19.88;;;;;;;;;;4996521;28;20197;-73
2022/08/19 03:26:46;;;;;;;25.55;19.60;;;;;;;;;;4990252;28;20679;-73
2022/08/19 03:29:15;;;;;;;22.83;19.57;;;;;;;;;;4985827;28;20283;-74
2022/08/19 03:31:58;;;;;;;22.83;19.27;;;;;;;;;;4994094;28;20205;-74
2022/08/19 03:34:31;;;;;;;24.40;19.30;;;;;;;;;;4988587;28;20239;-73
2022/08/19 03:37:04;;;;;;;19.88;17.73;;;;;;;;;;4984616;28;20201;-73
2022/08/19 03:39:32;;;;;;;22.83;19.93;;;;;;;;;;4993041;28;20639;-74
2022/08/19 03:42:02;;;;;;;20.77;18.58;;;;;;;;;;4993660;28;20201;-74
2022/08/19 03:44:50;;;;;;;22.17;18.13;;;;;;;;;;4987414;28;20267;-74
2022/08/19 03:47:19;;;;;;;22.57;19.90;;;;;;;;;;4993924;28;20670;-73
2022/08/19 03:49:47;;;;;;;23.03;18.57;;;;;;;;;;4993204;28;20271;-73
2022/08/19 03:52:17;;;;;;;23.17;18.75;;;;;;;;;;4987671;28;20575;-74
2022/08/19 03:54:45;;;;;;;22.70;19.20;;;;;;;;;;4990747;28;20232;-75
2022/08/19 03:57:14;;;;;;;21.77;18.80;;;;;;;;;;4974061;28;20565;-75
2022/08/19 03:59:43;;;;;;;21.97;19.63;;;;;;;;;;4989474;28;20235;-74
2022/08/19 04:02:13;;;;;;;21.13;18.67;;;;;;;;;;4993275;28;20206;-74
2022/08/19 04:04:43;;;;;;;22.47;18.97;;;;;;;;;;4991353;28;20202;-75
2022/08/19 04:07:15;;;;;;;22.27;19.87;;;;;;;;;;4993581;28;20201;-75
2022/08/19 04:09:45;;;;;;;22.17;19.37;;;;;;;;;;4988983;28;20225;-75
2022/08/19 04:12:14;;;;;;;25.52;19.85;;;;;;;;;;4974764;28;20210;-74
2022/08/19 04:14:43;;;;;;;20.60;17.80;;;;;;;;;;4989921;28;20237;-74
2022/08/19 04:17:12;;;;;;;20.17;18.07;;;;;;;;;;4978121;28;20214;-75
2022/08/19 04:19:42;;;;;;;20.90;18.70;;;;;;;;;;4992596;28;20630;-74
2022/08/19 04:22:11;;;;;;;21.10;18.53;;;;;;;;;;4996856;28;20209;-74
2022/08/19 04:24:40;;;;;;;23.40;20.90;;;;;;;;;;4996373;28;20655;-74
2022/08/19 04:27:09;;;;;;;25.80;20.38;;;;;;;;;;4996793;28;20646;-74
2022/08/19 04:29:39;;;;;;;23.50;20.83;;;;;;;;;;4997158;28;20252;-74
2022/08/19 04:32:07;;;;;;;26.83;21.33;;;;;;;;;;4997122;28;20255;-75
2022/08/19 04:34:37;;;;;;;24.37;21.67;;;;;;;;;;4996219;28;20304;-75
2022/08/19 04:37:26;;;;;;;25.83;20.83;;;;;;;;;;4996936;28;20256;-74
2022/08/19 04:42:50;;;;;;;27.40;21.17;;;;;;;;;;4978060;28;20245;-74
2022/08/19 04:45:20;;;;;;;27.17;20.77;;;;;;;;;;4994503;28;20303;-74
2022/08/19 04:47:50;;;;;;;24.07;21.37;;;;;;;;;;4997938;28;20225;-74
2022/08/19 04:50:41;;;;;;;24.97;20.93;;;;;;;;;;4989412;28;20201;-74
2022/08/19 04:53:10;;;;;;;26.93;21.40;;;;;;;;;;4996573;28;20198;-74
2022/08/19 04:55:42;;;;;;;24.77;20.97;;;;;;;;;;4988893;28;20239;-74
2022/08/19 04:58:12;;;;;;;26.93;20.63;;;;;;;;;;4996510;28;20255;-74
2022/08/19 05:00:40;;;;;;;27.73;20.57;;;;;;;;;;4990309;28;20259;-74
2022/08/19 05:03:10;;;;;;;23.93;20.33;;;;;;;;;;4996530;28;20213;-74
2022/08/19 05:05:40;;;;;;;26.10;20.33;;;;;;;;;;4994179;28;20705;-74
2022/08/19 05:08:12;;;;;;;25.77;20.43;;;;;;;;;;4995980;28;20192;-74
2022/08/19 05:10:42;;;;;;;22.67;19.63;;;;;;;;;;4993744;28;20201;-74
2022/08/19 05:13:12;;;;;;;26.47;20.17;;;;;;;;;;4996064;28;20283;-74
2022/08/19 05:15:41;;;;;;;27.30;21.30;;;;;;;;;;4995844;28;20236;-74
2022/08/19 05:23:42;;;;;;;25.53;19.83;;;;;;;;;;4988482;28;20209;-74
2022/08/19 05:26:11;;;;;;;28.30;21.67;;;;;;;;;;4995397;28;20698;-74
2022/08/19 05:28:41;;;;;;;28.00;21.88;;;;;;;;;;4995224;28;20218;-74
2022/08/19 05:31:09;;;;;;;31.60;21.50;;;;;;;;;;4993420;28;20205;-74
2022/08/19 05:33:39;;;;;;;29.97;21.07;;;;;;;;;;4996074;28;20202;-74
2022/08/19 05:36:08;;;;;;;32.10;23.53;;;;;;;;;;4988170;28;20316;-74
2022/08/19 05:38:37;;;;;;;35.07;21.87;;;;;;;;;;4990127;28;20332;-74
2022/08/19 05:41:08;;;;;;;31.27;21.93;;;;;;;;;;4994482;28;20237;-74
2022/08/19 05:43:36;;;;;;;32.23;21.57;;;;;;;;;;4995950;28;20284;-74
2022/08/19 05:46:07;;;;;;;29.20;22.40;;;;;;;;;;4995662;28;20244;-74
2022/08/19 05:48:36;;;;;;;26.27;20.53;;;;;;;;;;4995739;28;20224;-74
2022/08/19 05:51:06;;;;;;;26.20;21.73;;;;;;;;;;4995547;28;20284;-74
2022/08/19 05:53:35;;;;;;;23.98;20.67;;;;;;;;;;4996139;28;20193;-74
2022/08/19 05:56:05;;;;;;;24.42;20.85;;;;;;;;;;4995419;28;20225;-74
2022/08/19 05:58:34;;;;;;;26.30;21.48;;;;;;;;;;4995545;28;20238;-74
2022/08/19 06:01:05;;;;;;;26.70;22.35;;;;;;;;;;4995585;28;20212;-74
2022/08/19 06:03:36;;;;;;;27.48;22.38;;;;;;;;;;4995646;28;20709;-74
2022/08/19 06:06:05;;;;;;;22.67;19.90;;;;;;;;;;4976025;28;20198;-74
2022/08/19 06:08:34;;;;;;;24.38;20.50;;;;;;;;;;4979423;28;20316;-74
2022/08/19 06:11:23;;;;;;;24.77;20.25;;;;;;;;;;4995066;28;20296;-74
2022/08/19 06:13:56;;;;;;;24.38;19.85;;;;;;;;;;4992199;28;20717;-75
2022/08/19 06:16:28;;;;;;;24.65;20.08;;;;;;;;;;4995248;28;20216;-74
2022/08/19 06:18:58;;;;;;;24.40;20.65;;;;;;;;;;4995203;28;20279;-74
2022/08/19 06:21:27;;;;;;;24.55;20.17;;;;;;;;;;4996258;28;20209;-74
2022/08/19 06:23:56;;;;;;;22.20;19.33;;;;;;;;;;4994796;28;20209;-74
2022/08/19 06:26:26;;;;;;;22.33;20.00;;;;;;;;;;4987968;28;20202;-74
2022/08/19 06:28:54;;;;;;;21.73;19.45;;;;;;;;;;4981307;28;20354;-74
2022/08/19 06:31:24;;;;;;;21.45;19.05;;;;;;;;;;4995457;28;20213;-74
2022/08/19 06:33:54;;;;;;;21.05;18.85;;;;;;;;;;4995185;28;20205;-74
2022/08/19 06:36:26;;;;;;;20.35;17.98;;;;;;;;;;4994594;28;20225;-74
2022/08/19 06:38:57;;;;;;;21.42;18.65;;;;;;;;;;4994598;28;20249;-74
2022/08/19 06:41:25;;;;;;;18.73;16.73;;;;;;;;;;4995039;28;20212;-75
2022/08/19 06:43:54;;;;;;;19.35;17.33;;;;;;;;;;4991096;28;20210;-74
2022/08/19 06:46:24;;;;;;;20.08;17.17;;;;;;;;;;4994575;28;20204;-74
2022/08/19 06:48:54;;;;;;;20.80;18.73;;;;;;;;;;4994555;28;20238;-74
2022/08/19 06:51:24;;;;;;;23.13;20.73;;;;;;;;;;4995048;28;20209;-74
2022/08/19 06:53:57;;;;;;;24.55;21.38;;;;;;;;;;4994710;28;20228;-74
2022/08/19 06:56:30;;;;;;;22.67;20.17;;;;;;;;;;4996516;28;20221;-74
2022/08/19 06:58:59;;;;;;;23.77;21.20;;;;;;;;;;4994226;28;20247;-74
2022/08/19 07:01:28;;;;;;;23.58;20.45;;;;;;;;;;4994350;28;20247;-74
2022/08/19 07:03:57;;;;;;;23.92;20.73;;;;;;;;;;4994415;28;20232;-74
2022/08/19 07:06:27;;;;;;;21.67;19.38;;;;;;;;;;4994846;28;20202;-74
2022/08/19 07:09:14;;;;;;;22.33;19.88;;;;;;;;;;4993920;28;20225;-74
2022/08/19 07:11:46;;;;;;;22.25;18.90;;;;;;;;;;4994569;28;20604;-74
2022/08/19 07:14:17;;;;;;;21.67;19.38;;;;;;;;;;4993144;28;20217;-74
2022/08/19 07:16:46;;;;;;;21.27;18.92;;;;;;;;;;4990743;28;20244;-74
2022/08/19 07:19:15;;;;;;;20.05;18.05;;;;;;;;;;4993996;28;20706;-74
2022/08/19 07:21:48;;;;;;;19.40;17.30;;;;;;;;;;4993822;28;20288;-74
2022/08/19 07:24:18;;;;;;;20.27;18.08;;;;;;;;;;4999567;28;20204;-74
2022/08/19 07:26:47;;;;;;;19.42;16.85;;;;;;;;;;4993933;28;20618;-74
2022/08/19 07:29:19;;;;;;;18.65;16.73;;;;;;;;;;4993354;28;20279;-74
2022/08/19 07:31:51;;;;;;;18.45;16.10;;;;;;;;;;4993900;28;20658;-75
2022/08/19 07:34:21;;;;;;;17.13;15.25;;;;;;;;;;4994548;28;20681;-75
2022/08/19 07:36:51;;;;;;;18.27;16.33;;;;;;;;;;4993652;28;20312;-75
2022/08/19 07:39:21;;;;;;;16.50;14.77;;;;;;;;;;4993230;28;20233;-75
2022/08/19 07:41:50;;;;;;;18.83;15.20;;;;;;;;;;4994012;28;20208;-74
2022/08/19 07:44:20;;;;;;;16.30;14.43;;;;;;;;;;4993424;28;20236;-74
2022/08/19 07:46:51;;;;;;;16.75;14.95;;;;;;;;;;4993732;28;20578;-74
2022/08/19 07:49:21;;;;;;;16.13;14.55;;;;;;;;;;4994247;28;20631;-74
2022/08/19 07:51:52;;;;;;;18.33;15.02;;;;;;;;;;5000104;28;20279;-74
2022/08/19 07:54:22;;;;;;;16.58;14.70;;;;;;;;;;4999635;28;20277;-74
2022/08/19 07:56:52;;;;;;;17.20;14.50;;;;;;;;;;4999721;28;20224;-74
2022/08/19 07:59:21;;;;;;;15.98;13.95;;;;;;;;;;5000071;28;20229;-74
2022/08/19 08:01:49;;;;;;;15.02;13.43;;;;;;;;;;4999844;28;20209;-74
2022/08/19 08:09:59;;;;;;;15.10;13.60;;;;;;;;;;4999295;28;20225;-74
2022/08/19 08:12:32;;;;;;;14.80;13.23;;;;;;;;;;4999935;28;20189;-74
2022/08/19 08:15:04;;;;;;;16.08;13.98;;;;;;;;;;4999407;28;20217;-75
2022/08/19 08:17:36;;;;;;;16.50;13.02;;;;;;;;;;4999864;28;20581;-74
2022/08/19 08:20:17;;;;;;;14.02;12.63;;;;;;;;;;4999384;28;20291;-74
2022/08/19 08:25:35;;;;;;;12.95;11.32;;;;;;;;;;4999607;28;20627;-74
2022/08/19 08:28:04;;;;;;;15.90;13.10;;;;;;;;;;4999785;28;20216;-74
2022/08/19 08:30:35;;;;;;;12.95;11.18;;;;;;;;;;4999419;28;20609;-74
2022/08/19 08:33:04;;;;;;;10.93;9.73;;;;;;;;;;4999794;28;20209;-74
2022/08/19 08:35:33;;;;;;;11.18;10.02;;;;;;;;;;4999399;28;20209;-74
2022/08/19 08:38:04;;;;;;;10.43;9.38;;;;;;;;;;4999750;28;20573;-74
2022/08/19 08:40:40;;;;;;;11.60;10.48;;;;;;;;;;4999703;28;20689;-74
2022/08/19 08:43:10;;;;;;;12.55;10.73;;;;;;;;;;4999574;28;20197;-74
2022/08/19 08:45:43;;;;;;;11.95;10.30;;;;;;;;;;4992005;28;20197;-74
2022/08/19 08:48:16;;;;;;;10.80;9.65;;;;;;;;;;4999301;28;20622;-75
2022/08/19 08:50:52;;;;;;;10.68;9.50;;;;;;;;;;4999271;28;20189;-74
2022/08/19 08:53:22;;;;;;;13.10;10.23;;;;;;;;;;4997094;28;20662;-75
2022/08/19 08:56:01;;;;;;;10.90;9.80;;;;;;;;;;4999226;28;20193;-75
2022/08/19 08:58:32;;;;;;;8.95;8.05;;;;;;;;;;4999311;28;20233;-74
2022/08/19 09:01:00;;;;;;;8.52;7.70;;;;;;;;;;4995548;28;20678;-75
2022/08/19 09:03:30;;;;;;;9.50;6.55;;;;;;;;;;4995895;28;20213;-74
2022/08/19 09:06:01;;;;;;;6.40;5.80;;;;;;;;;;4996128;28;20584;-74
2022/08/19 09:08:38;;;;;;;4.90;4.43;;;;;;;;;;4995655;28;20240;-75
2022/08/19 09:11:08;;;;;;;5.32;4.82;;;;;;;;;;4992130;28;20200;-75
2022/08/19 09:13:43;;;;;;;4.95;4.55;;;;;;;;;;4995535;28;20248;-74
2022/08/19 09:16:13;;;;;;;5.85;4.68;;;;;;;;;;4991862;28;20204;-75
2022/08/19 09:18:43;;;;;;;5.65;4.35;;;;;;;;;;4980426;28;20225;-75
2022/08/19 09:21:11;;;;;;;7.50;4.97;;;;;;;;;;4996152;28;20217;-75
2022/08/19 09:23:43;;;;;;;5.30;4.30;;;;;;;;;;4995306;28;20208;-75
2022/08/19 09:26:14;;;;;;;6.60;4.85;;;;;;;;;;4995847;28;20193;-74
2022/08/19 09:28:44;;;;;;;5.57;5.00;;;;;;;;;;4996542;28;20313;-74
2022/08/19 09:31:26;;;;;;;5.85;5.20;;;;;;;;;;4996368;28;20601;-75
2022/08/19 09:33:56;;;;;;;6.60;4.80;;;;;;;;;;4992686;28;20623;-75
2022/08/19 09:36:26;;;;;;;6.32;5.22;;;;;;;;;;4995380;28;20209;-74
2022/08/19 09:39:04;;;;;;;6.78;5.60;;;;;;;;;;4982551;28;20312;-75
2022/08/19 09:41:43;;;;;;;6.65;5.40;;;;;;;;;;4987612;28;20223;-75
2022/08/19 09:44:16;;;;;;;5.82;5.32;;;;;;;;;;4995170;28;20205;-75
2022/08/19 09:46:46;;;;;;;5.45;4.60;;;;;;;;;;4979145;28;20209;-75
2022/08/19 09:49:16;;;;;;;4.82;3.88;;;;;;;;;;4984412;28;20224;-74
2022/08/19 09:51:47;;;;;;;5.30;4.43;;;;;;;;;;4995416;28;20217;-75
2022/08/19 09:54:20;;;;;;;5.72;4.50;;;;;;;;;;4994707;28;20259;-75
2022/08/19 09:56:52;;;;;;;6.18;4.88;;;;;;;;;;4979178;28;20678;-75
2022/08/19 09:59:20;;;;;;;4.72;4.28;;;;;;;;;;4995044;28;20604;-75
2022/08/19 10:01:49;;;;;;;5.10;4.40;;;;;;;;;;4994934;28;20563;-75
2022/08/19 10:04:17;;;;;;;4.93;4.07;;;;;;;;;;4989126;28;20201;-75
2022/08/19 10:06:49;;;;;;;5.80;4.25;;;;;;;;;;4995507;28;20194;-75
2022/08/19 10:09:22;;;;;;;6.18;4.65;;;;;;;;;;4994589;28;20316;-75
2022/08/19 10:12:01;;;;;;;5.18;4.03;;;;;;;;;;4995260;28;20295;-75
2022/08/19 10:14:30;;;;;;;4.97;3.50;;;;;;;;;;4993945;28;20209;-75
2022/08/19 10:17:00;;;;;;;5.65;3.40;;;;;;;;;;4993833;28;20229;-75
2022/08/19 10:19:44;;;;;;;4.50;3.20;;;;;;;;;;4994660;28;20229;-76
2022/08/19 10:22:25;;;;;;;4.97;3.10;;;;;;;;;;4994954;28;20204;-75
2022/08/19 10:24:56;;;;;;;4.63;3.85;;;;;;;;;;4994293;28;20569;-75
2022/08/19 10:27:24;;;;;;;3.42;3.13;;;;;;;;;;4994471;28;20200;-75
2022/08/19 10:29:53;;;;;;;4.53;3.03;;;;;;;;;;4996959;28;20229;-75
2022/08/19 10:32:23;;;;;;;4.00;3.00;;;;;;;;;;4992794;28;20235;-75
2022/08/19 10:35:01;;;;;;;2.60;2.00;;;;;;;;;;4989439;28;20224;-75
2022/08/19 10:37:33;;;;;;;2.90;2.58;;;;;;;;;;4994387;28;20217;-75
2022/08/19 10:40:04;;;;;;;3.78;2.67;;;;;;;;;;4993821;28;20220;-75
2022/08/19 10:42:32;;;;;;;5.47;3.05;;;;;;;;;;4994677;28;20204;-75
2022/08/19 10:45:01;;;;;;;2.85;2.63;;;;;;;;;;4992618;28;20216;-75
2022/08/19 10:47:32;;;;;;;3.72;2.67;;;;;;;;;;4994168;28;20216;-76
2022/08/19 10:52:47;;;;;;;3.15;2.20;;;;;;;;;;4994325;28;20200;-75
2022/08/19 10:58:12;;;;;;;2.40;2.20;;;;;;;;;;4993839;28;20279;-76
2022/08/19 11:00:41;;;;;;;1.70;1.60;;;;;;;;;;4996265;28;20292;-75
2022/08/19 11:03:09;;;;;;;3.03;1.80;;;;;;;;;;4994152;28;20706;-75
2022/08/19 11:05:38;;;;;;;2.80;1.35;;;;;;;;;;4993536;28;20244;-75
2022/08/19 11:08:11;;;;;;;1.52;1.30;;;;;;;;;;4994466;28;20205;-75
2022/08/19 11:10:53;;;;;;;1.38;1.17;;;;;;;;;;4993645;28;20210;-75
2022/08/19 11:13:23;;;;;;;1.83;1.23;;;;;;;;;;4993738;28;20220;-75
2022/08/19 11:15:57;;;;;;;2.80;1.20;;;;;;;;;;4986175;28;20201;-75
2022/08/19 11:18:30;;;;;;;1.58;1.20;;;;;;;;;;4993378;28;20224;-76
2022/08/19 11:21:06;;;;;;;1.20;1.10;;;;;;;;;;4993571;28;20333;-75
2022/08/19 11:23:35;;;;;;;2.28;1.20;;;;;;;;;;4993702;28;20205;-75
2022/08/19 11:26:05;;;;;;;1.48;1.20;;;;;;;;;;4992730;28;20205;-75
2022/08/19 11:28:33;;;;;;;3.17;1.33;;;;;;;;;;4994710;28;20674;-75
2022/08/19 11:31:03;;;;;;;1.38;1.10;;;;;;;;;;4993244;28;20205;-75
2022/08/19 11:33:32;;;;;;;1.70;1.10;;;;;;;;;;4993724;28;20208;-75
2022/08/19 11:36:02;;;;;;;1.40;1.20;;;;;;;;;;4994085;28;20207;-75
2022/08/19 11:38:30;;;;;;;2.78;1.30;;;;;;;;;;4996508;28;20241;-75
2022/08/19 11:40:59;;;;;;;2.55;1.30;;;;;;;;;;4994909;28;20646;-75
2022/08/19 11:43:29;;;;;;;1.63;1.15;;;;;;;;;;4994799;28;20654;-76
2022/08/19 11:46:06;;;;;;;1.33;1.13;;;;;;;;;;4995331;28;20240;-75
2022/08/19 11:48:35;;;;;;;1.75;1.10;;;;;;;;;;4993761;28;20228;-75
2022/08/19 11:51:06;;;;;;;1.23;1.00;;;;;;;;;;4994377;28;20625;-76
2022/08/19 11:53:35;;;;;;;1.90;1.27;;;;;;;;;;4994796;28;20197;-76
2022/08/19 11:56:08;;;;;;;1.75;1.40;;;;;;;;;;4997869;28;20193;-76
2022/08/19 11:58:38;;;;;;;2.00;1.40;;;;;;;;;;4994295;28;20287;-74
2022/08/19 12:01:07;;;;;;;1.42;1.25;;;;;;;;;;4993780;28;20224;-74
2022/08/19 12:03:36;;;;;;;1.60;1.42;;;;;;;;;;4993680;28;20201;-74
2022/08/19 12:06:05;;;;;;;1.30;1.20;;;;;;;;;;4994391;28;20244;-74
2022/08/19 12:08:34;;;;;;;1.65;1.55;;;;;;;;;;4994480;28;20686;-74
2022/08/19 12:11:02;;;;;;;1.75;1.23;;;;;;;;;;4994241;28;20205;-75
2022/08/19 12:13:31;;;;;;;2.50;1.30;;;;;;;;;;4992878;28;20197;-75
2022/08/19 12:16:02;;;;;;;2.65;1.30;;;;;;;;;;4988894;28;20201;-74
2022/08/19 12:18:31;;;;;;;2.40;1.40;;;;;;;;;;4998727;28;20238;-76
2022/08/19 12:21:01;;;;;;;2.33;1.38;;;;;;;;;;4995541;28;21075;-75
2022/08/19 12:23:29;;;;;;;2.72;1.48;;;;;;;;;;4994259;28;22095;-75
2022/08/19 12:25:58;;;;;;;2.22;1.30;;;;;;;;;;4994013;28;20213;-75
2022/08/19 12:28:27;;;;;;;1.70;1.27;;;;;;;;;;4992412;28;20242;-75
2022/08/19 12:30:57;;;;;;;1.85;1.40;;;;;;;;;;4992558;28;20730;-75
2022/08/19 12:33:28;;;;;;;2.00;1.50;;;;;;;;;;4992320;28;20208;-76
2022/08/19 12:36:01;;;;;;;1.50;1.40;;;;;;;;;;4994487;28;20653;-75
2022/08/19 12:38:30;;;;;;;1.80;1.50;;;;;;;;;;4996642;28;20919;-75
2022/08/19 12:40:58;;;;;;;1.83;1.48;;;;;;;;;;4995582;28;20209;-75
2022/08/19 12:43:30;;;;;;;1.95;1.33;;;;;;;;;;4993665;28;20296;-75
2022/08/19 12:45:58;;;;;;;1.92;1.55;;;;;;;;;;4995847;28;20209;-75
2022/08/19 12:48:29;;;;;;;1.73;1.60;;;;;;;;;;4992856;28;20208;-75
2022/08/19 12:51:02;;;;;;;1.70;1.40;;;;;;;;;;4995465;28;20296;-75
2022/08/19 12:53:31;;;;;;;3.45;1.67;;;;;;;;;;4994853;28;20213;-75
2022/08/19 12:56:02;;;;;;;3.78;1.75;;;;;;;;;;4995669;28;20255;-74
2022/08/19 12:58:35;;;;;;;2.25;1.70;;;;;;;;;;4996180;28;20227;-75
2022/08/19 13:01:07;;;;;;;2.30;1.45;;;;;;;;;;4997957;28;20224;-75
2022/08/19 13:03:37;;;;;;;3.00;1.80;;;;;;;;;;4995475;28;20646;-74
2022/08/19 13:06:15;;;;;;;2.45;1.60;;;;;;;;;;4994370;28;20205;-75
2022/08/19 13:08:47;;;;;;;2.60;1.52;;;;;;;;;;4995375;28;20600;-74
2022/08/19 13:11:17;;;;;;;2.05;1.70;;;;;;;;;;4983779;28;20225;-74
2022/08/19 13:13:47;;;;;;;1.73;1.63;;;;;;;;;;4979962;28;20647;-74
2022/08/19 13:16:16;;;;;;;3.63;1.95;;;;;;;;;;4995017;28;20252;-74
2022/08/19 13:18:47;;;;;;;2.40;1.80;;;;;;;;;;4995102;28;20243;-74
2022/08/19 13:21:16;;;;;;;2.22;1.90;;;;;;;;;;4994717;28;20244;-75
2022/08/19 13:23:48;;;;;;;3.40;1.77;;;;;;;;;;4994177;28;20288;-75
2022/08/19 13:26:16;;;;;;;3.72;1.80;;;;;;;;;;4977823;28;20205;-74
2022/08/19 13:34:26;;;;;;;2.83;1.80;;;;;;;;;;4994355;28;20259;-74
2022/08/19 13:36:58;;;;;;;1.75;1.65;;;;;;;;;;4994204;28;20291;-74
2022/08/19 13:39:27;;;;;;;2.20;1.90;;;;;;;;;;4987173;28;20255;-74
2022/08/19 13:41:55;;;;;;;2.40;1.80;;;;;;;;;;4987882;28;20225;-75
2022/08/19 13:44:24;;;;;;;2.85;1.90;;;;;;;;;;4989302;28;20232;-75
2022/08/19 13:46:54;;;;;;;4.78;2.10;;;;;;;;;;4993896;28;20213;-76
2022/08/19 13:49:24;;;;;;;3.72;1.80;;;;;;;;;;4991531;28;20701;-77
2022/08/19 13:51:52;;;;;;;3.72;1.70;;;;;;;;;;4992550;28;20205;-76
2022/08/19 13:54:21;;;;;;;2.70;2.03;;;;;;;;;;4991709;28;20213;-76
2022/08/19 13:56:50;;;;;;;3.70;1.90;;;;;;;;;;4991740;28;20206;-76
2022/08/19 13:59:18;;;;;;;2.90;1.83;;;;;;;;;;4991123;28;20236;-75
2022/08/19 14:01:47;;;;;;;2.10;1.90;;;;;;;;;;4992805;28;20213;-75
2022/08/19 14:04:15;;;;;;;1.90;1.80;;;;;;;;;;4993270;28;20201;-76
2022/08/19 14:06:45;;;;;;;2.08;1.70;;;;;;;;;;4992855;28;20209;-76
2022/08/19 14:09:14;;;;;;;1.60;1.50;;;;;;;;;;4990996;28;20229;-76
2022/08/19 14:11:42;;;;;;;2.42;1.60;;;;;;;;;;4990262;28;20209;-76
2022/08/19 14:14:10;;;;;;;1.70;1.60;;;;;;;;;;4982755;28;20217;-76
2022/08/19 14:16:43;;;;;;;2.67;1.60;;;;;;;;;;4992271;28;20287;-76
2022/08/19 14:19:12;;;;;;;2.20;1.67;;;;;;;;;;4993738;28;20240;-75
2022/08/19 14:21:40;;;;;;;1.67;1.58;;;;;;;;;;4991643;28;20201;-76
2022/08/19 14:24:10;;;;;;;1.63;1.52;;;;;;;;;;4995888;28;20215;-75
2022/08/19 14:26:39;;;;;;;1.33;1.27;;;;;;;;;;4993565;28;20213;-75
2022/08/19 14:29:07;;;;;;;1.60;1.50;;;;;;;;;;4987746;28;20232;-76
2022/08/19 14:31:36;;;;;;;1.73;1.63;;;;;;;;;;4994389;28;20204;-76
2022/08/19 14:34:05;;;;;;;3.33;1.80;;;;;;;;;;4994001;28;20300;-76
2022/08/19 14:36:34;;;;;;;1.70;1.50;;;;;;;;;;4991899;28;20204;-75
2022/08/19 14:39:06;;;;;;;1.67;1.58;;;;;;;;;;4992269;28;20255;-75
2022/08/19 14:41:36;;;;;;;1.70;1.60;;;;;;;;;;4999439;28;20653;-75
2022/08/19 14:44:05;;;;;;;2.40;1.60;;;;;;;;;;4992759;28;20643;-75
2022/08/19 14:46:33;;;;;;;2.13;1.50;;;;;;;;;;4991040;28;20576;-75
2022/08/19 14:49:02;;;;;;;1.65;1.55;;;;;;;;;;4992628;28;20236;-75
2022/08/19 14:51:36;;;;;;;2.53;1.50;;;;;;;;;;4990540;28;20637;-75
2022/08/19 14:54:05;;;;;;;1.58;1.48;;;;;;;;;;4993085;28;20217;-75
2022/08/19 14:56:35;;;;;;;1.60;1.50;;;;;;;;;;4992572;28;20212;-76
2022/08/19 14:59:06;;;;;;;3.53;1.60;;;;;;;;;;4989703;28;20252;-75
2022/08/19 15:01:35;;;;;;;1.70;1.60;;;;;;;;;;4991132;28;20241;-75
2022/08/19 15:04:03;;;;;;;1.70;1.60;;;;;;;;;;4991718;28;20236;-76
2022/08/19 15:06:32;;;;;;;1.80;1.60;;;;;;;;;;4993870;28;20208;-75
2022/08/19 15:09:02;;;;;;;1.98;1.70;;;;;;;;;;4992628;28;20694;-75
2022/08/19 15:11:32;;;;;;;1.83;1.55;;;;;;;;;;4992011;28;20549;-76
2022/08/19 15:14:01;;;;;;;2.03;1.60;;;;;;;;;;4992037;28;20587;-75
2022/08/19 15:16:31;;;;;;;1.77;1.55;;;;;;;;;;4992555;28;20201;-75
2022/08/19 15:19:00;;;;;;;2.75;1.60;;;;;;;;;;4990208;28;20713;-76